createdAt,value
2018-07-12T00:02:15.455Z,68.50
2018-07-12T00:04:43.314Z,69.30
2018-07-12T00:07:11.130Z,69.10
2018-07-12T00:09:38.934Z,69.30
2018-07-12T00:12:06.790Z,70.10
2018-07-12T00:14:34.569Z,71.30
2018-07-12T00:17:02.414Z,70.70
2018-07-12T00:19:30.343Z,71.20
2018-07-12T00:21:58.214Z,70.00
2018-07-12T00:24:26.209Z,75.30
2018-07-12T00:26:54.050Z,77.90
2018-07-12T00:29:21.850Z,77.90
2018-07-12T00:31:49.666Z,78.10
2018-07-12T00:34:17.523Z,81.00
2018-07-12T00:36:45.338Z,83.20
2018-07-12T00:39:13.191Z,86.00
2018-07-12T00:41:41.014Z,86.60
2018-07-12T00:44:08.820Z,88.50
2018-07-12T00:46:36.622Z,90.20
2018-07-12T00:49:04.466Z,91.00
2018-07-12T00:51:32.306Z,91.50
2018-07-12T00:54:00.106Z,92.40
2018-07-12T00:56:27.887Z,92.70
2018-07-12T00:58:55.714Z,93.30
2018-07-12T01:01:23.494Z,93.40
2018-07-12T01:03:51.310Z,92.80
2018-07-12T01:06:19.121Z,93.60
2018-07-12T01:08:46.904Z,93.90
2018-07-12T01:11:14.730Z,94.50
2018-07-12T01:13:42.720Z,94.50
2018-07-12T01:16:10.557Z,93.90
2018-07-12T01:18:38.358Z,93.90
2018-07-12T01:21:06.150Z,94.50
2018-07-12T01:23:33.955Z,94.60
2018-07-12T01:26:01.734Z,94.70
2018-07-12T01:28:29.522Z,93.80
2018-07-12T01:30:57.331Z,93.90
2018-07-12T01:33:25.106Z,94.40
2018-07-12T01:35:52.926Z,94.90
2018-07-12T01:38:20.894Z,94.90
2018-07-12T01:40:48.702Z,95.50
2018-07-12T01:43:16.514Z,95.40
2018-07-12T01:45:44.366Z,95.40
2018-07-12T01:48:12.392Z,95.60
2018-07-12T01:50:40.221Z,95.70
2018-07-12T01:53:08.012Z,94.90
2018-07-12T01:55:35.810Z,95.00
2018-07-12T01:58:03.594Z,95.10
2018-07-12T02:00:31.447Z,96.10
2018-07-12T02:02:59.216Z,96.00
2018-07-12T02:05:27.016Z,96.60
2018-07-12T02:07:54.810Z,96.70
2018-07-12T02:10:22.600Z,96.10
2018-07-12T02:12:50.599Z,95.80
2018-07-12T02:15:18.426Z,96.00
2018-07-12T02:17:46.383Z,96.20
2018-07-12T02:20:14.211Z,96.60
2018-07-12T02:22:42.966Z,95.70
2018-07-12T02:25:10.782Z,96.10
2018-07-12T02:27:38.608Z,96.50
2018-07-12T02:30:06.396Z,96.70
2018-07-12T02:32:34.194Z,96.80
2018-07-12T02:35:02.024Z,96.30
2018-07-12T02:37:29.800Z,97.60
2018-07-12T02:39:57.587Z,98.30
2018-07-12T02:42:25.391Z,98.90
2018-07-12T02:44:53.191Z,99.20
2018-07-12T02:47:21.202Z,99.10
2018-07-12T02:49:49.043Z,99.20
2018-07-12T02:52:16.851Z,99.10
2018-07-12T02:54:44.653Z,99.40
2018-07-12T02:57:12.465Z,99.50
2018-07-12T02:59:40.282Z,99.20
2018-07-12T03:02:08.054Z,99.20
2018-07-12T03:04:35.871Z,98.80
2018-07-12T03:07:03.731Z,98.50
2018-07-12T03:09:31.571Z,98.90
2018-07-12T03:11:59.410Z,98.90
2018-07-12T03:14:27.242Z,99.00
2018-07-12T03:16:55.027Z,99.20
2018-07-12T03:19:22.830Z,99.10
2018-07-12T03:21:50.635Z,98.90
2018-07-12T03:24:18.425Z,99.20
2018-07-12T03:26:46.234Z,99.50
2018-07-12T03:29:14.031Z,99.50
2018-07-12T03:31:41.862Z,99.00
2018-07-12T03:34:09.667Z,98.70
2018-07-12T03:36:37.497Z,99.00
2018-07-12T03:39:05.530Z,99.30
2018-07-12T03:41:33.326Z,99.40
2018-07-12T03:44:01.126Z,98.60
2018-07-12T03:46:28.927Z,98.70
2018-07-12T03:48:56.776Z,98.00
2018-07-12T03:51:24.573Z,97.30
2018-07-12T03:53:52.402Z,97.80
2018-07-12T03:56:20.238Z,97.90
2018-07-12T03:58:48.126Z,96.70
2018-07-12T04:01:15.987Z,97.20
2018-07-12T04:03:43.852Z,97.60
2018-07-12T04:06:11.709Z,97.80
2018-07-12T04:08:39.483Z,97.00
2018-07-12T04:11:07.310Z,96.60
2018-07-12T04:13:35.090Z,95.00
2018-07-12T04:16:02.895Z,95.10
2018-07-12T04:18:30.687Z,94.30
2018-07-12T04:20:58.492Z,94.90
2018-07-12T04:23:26.433Z,94.90
2018-07-12T04:25:54.234Z,93.90
2018-07-12T04:28:22.027Z,93.60
2018-07-12T04:30:49.818Z,93.50
2018-07-12T04:33:17.853Z,93.60
2018-07-12T04:35:45.699Z,94.40
2018-07-12T04:43:09.488Z,94.50
2018-07-12T04:45:37.319Z,92.30
2018-07-12T04:48:05.134Z,92.60
2018-07-12T04:50:32.943Z,92.30
2018-07-12T04:53:00.714Z,92.60
2018-07-12T04:55:28.518Z,92.60
2018-07-12T04:57:56.306Z,92.60
2018-07-12T05:00:24.127Z,91.40
2018-07-12T05:02:51.929Z,91.80
2018-07-12T05:05:19.734Z,91.60
2018-07-12T05:07:47.555Z,91.70
2018-07-12T05:10:15.419Z,91.50
2018-07-12T05:12:43.227Z,90.50
2018-07-12T05:15:11.034Z,90.10
2018-07-12T05:17:38.854Z,89.60
2018-07-12T05:20:06.648Z,90.40
2018-07-12T05:22:34.458Z,88.80
2018-07-12T05:25:02.443Z,87.60
2018-07-12T05:27:30.354Z,85.30
2018-07-12T05:29:58.157Z,86.20
2018-07-12T05:32:25.958Z,86.00
2018-07-12T05:34:53.764Z,85.40
2018-07-12T05:37:23.810Z,87.40
2018-07-12T05:39:52.748Z,88.80
2018-07-12T05:42:21.622Z,87.50
2018-07-12T05:44:50.530Z,88.50
2018-07-12T05:47:20.527Z,90.30
2018-07-12T05:49:49.742Z,90.50
2018-07-12T05:52:18.651Z,90.90
2018-07-12T05:54:47.670Z,89.40
2018-07-12T05:57:16.741Z,89.20
2018-07-12T05:59:45.722Z,89.90
2018-07-12T06:02:17.018Z,90.20
2018-07-12T06:04:46.364Z,88.90
2018-07-12T06:07:19.505Z,88.20
2018-07-12T06:09:48.510Z,88.20
2018-07-12T06:12:17.744Z,87.30
2018-07-12T06:14:46.890Z,87.30
2018-07-12T06:17:15.875Z,86.40
2018-07-12T06:19:44.813Z,85.00
2018-07-12T06:24:42.675Z,85.10
2018-07-12T06:27:11.734Z,84.30
2018-07-12T06:29:40.701Z,85.20
2018-07-12T06:32:09.602Z,87.10
2018-07-12T06:34:38.498Z,88.60
2018-07-12T06:37:07.520Z,83.50
2018-07-12T06:39:36.375Z,80.50
2018-07-12T06:42:05.591Z,82.70
2018-07-12T06:44:34.506Z,80.40
2018-07-12T06:47:03.434Z,80.80
2018-07-12T06:49:32.510Z,77.90
2018-07-12T06:52:01.457Z,79.00
2018-07-12T06:54:30.419Z,79.10
2018-07-12T06:56:59.288Z,81.30
2018-07-12T06:59:28.194Z,79.30
2018-07-12T07:01:57.162Z,79.40
2018-07-12T07:04:26.263Z,73.00
2018-07-12T07:06:55.226Z,75.90
2018-07-12T07:09:24.117Z,72.00
2018-07-12T07:11:53.072Z,72.90
2018-07-12T07:14:22.154Z,70.00
2018-07-12T07:16:51.050Z,71.70
2018-07-12T07:19:20.116Z,70.50
2018-07-12T07:21:49.046Z,73.30
2018-07-12T07:24:18.061Z,70.20
2018-07-12T07:26:47.039Z,70.60
2018-07-12T07:29:15.999Z,70.80
2018-07-12T07:31:44.947Z,71.00
2018-07-12T07:34:13.842Z,72.10
2018-07-12T07:36:42.726Z,71.20
2018-07-12T07:39:11.721Z,68.70
2018-07-12T07:41:40.587Z,65.80
2018-07-12T07:44:09.482Z,67.60
2018-07-12T07:46:38.381Z,61.50
2018-07-12T07:49:07.346Z,61.40
2018-07-12T07:51:36.376Z,64.80
2018-07-12T07:54:05.469Z,64.10
2018-07-12T07:56:34.566Z,65.70
2018-07-12T07:59:03.715Z,62.80
2018-07-12T08:01:32.893Z,59.40
2018-07-12T08:04:01.772Z,59.60
2018-07-12T08:06:30.667Z,57.20
2018-07-12T08:08:59.582Z,57.90
2018-07-12T08:11:28.475Z,59.40
2018-07-12T08:13:57.354Z,57.20
2018-07-12T08:16:26.322Z,57.00
2018-07-12T08:18:55.251Z,57.30
2018-07-12T08:21:24.146Z,58.60
2018-07-12T08:23:53.082Z,57.00
2018-07-12T08:26:21.958Z,58.30
2018-07-12T08:28:50.958Z,56.40
2018-07-12T08:31:19.913Z,56.30
2018-07-12T08:33:48.733Z,54.70
2018-07-12T08:36:17.710Z,57.00
2018-07-12T08:38:46.661Z,53.10
2018-07-12T08:41:15.590Z,53.80
2018-07-12T08:43:44.578Z,53.70
2018-07-12T08:46:13.561Z,56.00
2018-07-12T08:48:42.381Z,54.80
2018-07-12T08:51:11.283Z,53.90
2018-07-12T08:53:40.257Z,52.70
2018-07-12T08:56:09.163Z,54.00
2018-07-12T08:58:38.065Z,51.90
2018-07-12T09:01:06.963Z,53.80
2018-07-12T09:03:35.957Z,53.70
2018-07-12T09:06:04.960Z,55.00
2018-07-12T09:08:33.846Z,55.90
2018-07-12T09:11:02.825Z,55.40
2018-07-12T09:13:32.794Z,52.50
2018-07-12T09:16:01.767Z,52.00
2018-07-12T09:18:30.648Z,50.80
2018-07-12T09:20:59.558Z,49.80
2018-07-12T09:23:28.483Z,51.90
2018-07-12T09:25:57.465Z,53.60
2018-07-12T09:28:26.383Z,52.20
2018-07-12T09:30:55.485Z,52.50
2018-07-12T09:33:24.293Z,52.20
2018-07-12T09:35:53.254Z,52.50
2018-07-12T09:38:33.458Z,51.40
2018-07-12T09:41:02.384Z,48.00
2018-07-12T09:43:31.583Z,49.00
2018-07-12T09:46:00.479Z,49.50
2018-07-12T09:48:29.411Z,47.80
2018-07-12T09:50:58.348Z,48.80
2018-07-12T09:53:27.345Z,49.00
2018-07-12T09:55:56.285Z,48.60
2018-07-12T09:58:28.594Z,48.20
2018-07-12T10:01:03.074Z,45.90
2018-07-12T10:03:37.307Z,45.70
2018-07-12T10:06:11.794Z,47.40
2018-07-12T10:08:46.249Z,46.70
2018-07-12T10:11:20.643Z,45.50
2018-07-12T10:13:55.011Z,45.90
2018-07-12T10:16:29.232Z,45.30
2018-07-12T10:18:58.151Z,45.50
2018-07-12T10:23:55.612Z,43.70
2018-07-12T10:26:24.630Z,45.90
2018-07-12T10:28:53.818Z,42.40
2018-07-12T10:31:22.727Z,43.80
2018-07-12T10:33:51.711Z,41.30
2018-07-12T10:36:21.142Z,40.10
2018-07-12T10:38:50.034Z,39.30
2018-07-12T10:41:19.142Z,38.60
2018-07-12T10:43:48.014Z,37.70
2018-07-12T10:46:16.921Z,37.80
2018-07-12T10:48:45.830Z,39.20
2018-07-12T10:51:14.746Z,37.30
2018-07-12T10:53:43.651Z,37.70
2018-07-12T10:56:12.550Z,38.40
2018-07-12T10:58:41.438Z,38.30
2018-07-12T11:01:10.332Z,37.40
2018-07-12T11:03:39.214Z,34.90
2018-07-12T11:06:08.094Z,34.50
2018-07-12T11:08:36.965Z,33.30
2018-07-12T11:11:05.862Z,32.30
2018-07-12T11:13:47.130Z,34.00
2018-07-12T11:16:16.076Z,33.10
2018-07-12T11:18:44.962Z,33.10
2018-07-12T11:21:14.277Z,33.80
2018-07-12T11:23:43.193Z,32.60
2018-07-12T11:26:12.740Z,34.10
2018-07-12T11:28:45.126Z,34.50
2018-07-12T11:31:14.127Z,35.00
2018-07-12T11:33:45.030Z,33.40
2018-07-12T11:36:13.972Z,30.90
2018-07-12T11:38:43.848Z,32.10
2018-07-12T11:41:13.046Z,33.70
2018-07-12T11:43:42.015Z,33.40
2018-07-12T11:46:12.190Z,34.00
2018-07-12T11:48:42.114Z,34.20
2018-07-12T11:51:10.990Z,30.00
2018-07-12T11:53:39.888Z,33.60
2018-07-12T11:56:08.766Z,30.20
2018-07-12T11:58:37.665Z,28.20
2018-07-12T12:01:06.564Z,30.50
2018-07-12T12:03:35.510Z,29.70
2018-07-12T12:06:04.378Z,28.60
2018-07-12T12:08:33.266Z,30.00
2018-07-12T12:11:02.176Z,28.70
2018-07-12T12:13:31.087Z,28.70
2018-07-12T12:15:59.977Z,29.50
2018-07-12T12:18:29.022Z,28.20
2018-07-12T12:20:57.919Z,27.50
2018-07-12T12:23:26.793Z,28.10
2018-07-12T12:25:55.734Z,28.10
2018-07-12T12:28:25.637Z,29.70
2018-07-12T12:30:54.515Z,28.80
2018-07-12T12:33:23.442Z,27.60
2018-07-12T12:35:52.290Z,25.90
2018-07-12T12:38:21.274Z,27.20
2018-07-12T12:40:50.174Z,25.80
2018-07-12T12:43:19.115Z,25.70
2018-07-12T12:45:48.030Z,26.30
2018-07-12T12:48:16.999Z,27.20
2018-07-12T12:50:46.038Z,26.60
2018-07-12T12:53:14.934Z,24.60
2018-07-12T12:55:43.947Z,25.10
2018-07-12T12:58:12.910Z,23.70
2018-07-12T13:00:41.795Z,25.60
2018-07-12T13:03:10.670Z,26.20
2018-07-12T13:05:39.549Z,26.90
2018-07-12T13:08:08.522Z,26.10
2018-07-12T13:10:37.339Z,24.40
2018-07-12T13:13:06.254Z,23.60
2018-07-12T13:15:35.156Z,24.10
2018-07-12T13:18:04.229Z,24.80
2018-07-12T13:23:01.614Z,24.40
2018-07-12T13:25:30.508Z,23.60
2018-07-12T13:27:59.433Z,23.10
2018-07-12T13:30:28.327Z,23.90
2018-07-12T13:32:57.350Z,24.60
2018-07-12T13:35:26.230Z,23.40
2018-07-12T13:37:55.571Z,23.30
2018-07-12T13:40:24.453Z,24.20
2018-07-12T13:42:53.322Z,24.60
2018-07-12T13:45:22.313Z,26.60
2018-07-12T13:47:51.216Z,26.60
2018-07-12T13:50:20.279Z,27.10
2018-07-12T13:52:49.178Z,25.30
2018-07-12T13:55:18.071Z,25.90
2018-07-12T13:57:47.018Z,24.60
2018-07-12T14:00:15.938Z,22.70
2018-07-12T14:02:44.815Z,23.10
2018-07-12T14:05:13.721Z,24.50
2018-07-12T14:07:42.594Z,23.40
2018-07-12T14:10:11.567Z,23.30
2018-07-12T14:12:40.535Z,23.30
2018-07-12T14:15:09.450Z,21.40
2018-07-12T14:17:38.315Z,24.40
2018-07-12T14:20:07.216Z,24.10
2018-07-12T14:22:36.114Z,24.10
2018-07-12T14:25:05.002Z,24.40
2018-07-12T14:27:33.911Z,25.10
2018-07-12T14:30:02.786Z,26.60
2018-07-12T14:32:31.659Z,27.00
2018-07-12T14:35:00.698Z,26.10
2018-07-12T14:37:29.570Z,26.10
2018-07-12T14:39:58.470Z,27.30
2018-07-12T14:42:27.404Z,26.70
2018-07-12T14:44:56.319Z,26.00
2018-07-12T14:47:25.195Z,26.30
2018-07-12T14:49:54.070Z,25.20
2018-07-12T14:54:51.454Z,26.90
2018-07-12T14:57:20.367Z,26.70
2018-07-12T14:59:49.254Z,27.30
2018-07-12T15:02:18.178Z,28.30
2018-07-12T15:04:47.126Z,26.80
2018-07-12T15:07:16.046Z,26.60
2018-07-12T15:09:45.060Z,26.10
2018-07-12T15:12:13.965Z,26.50
2018-07-12T15:14:42.922Z,26.90
2018-07-12T15:17:11.959Z,28.70
2018-07-12T15:19:40.814Z,27.10
2018-07-12T15:22:09.731Z,27.40
2018-07-12T15:24:38.689Z,29.10
2018-07-12T15:27:07.527Z,29.20
2018-07-12T15:29:36.525Z,29.80
2018-07-12T15:32:05.485Z,29.30
2018-07-12T15:34:34.346Z,27.80
2018-07-12T15:39:31.749Z,29.70
2018-07-12T15:42:00.626Z,29.80
2018-07-12T15:44:29.487Z,27.80
2018-07-12T15:46:58.370Z,25.30
2018-07-12T15:49:27.249Z,24.30
2018-07-12T15:51:56.210Z,22.40
2018-07-12T15:54:25.106Z,21.60
2018-07-12T15:56:54.110Z,21.20
2018-07-12T15:59:23.225Z,20.60
2018-07-12T16:01:52.115Z,19.30
2018-07-12T16:04:21.007Z,19.20
2018-07-12T16:06:49.945Z,18.90
2018-07-12T16:09:18.864Z,20.30
2018-07-12T16:11:47.758Z,19.40
2018-07-12T16:14:16.686Z,18.50
2018-07-12T16:16:45.630Z,18.60
2018-07-12T16:19:14.525Z,17.60
2018-07-12T16:21:43.398Z,18.10
2018-07-12T16:24:12.278Z,17.30
2018-07-12T16:26:41.158Z,17.10
2018-07-12T16:29:10.038Z,17.00
2018-07-12T16:31:38.919Z,17.90
2018-07-12T16:34:07.912Z,17.00
2018-07-12T16:36:36.771Z,16.90
2018-07-12T16:39:07.167Z,16.50
2018-07-12T16:41:36.099Z,15.30
2018-07-12T16:44:05.030Z,15.90
2018-07-12T16:46:33.902Z,16.10
2018-07-12T16:49:02.794Z,15.70
2018-07-12T16:54:00.271Z,15.30
2018-07-12T16:56:29.151Z,15.30
2018-07-12T16:58:58.040Z,15.20
2018-07-12T17:01:26.913Z,15.10
2018-07-12T17:03:55.818Z,15.70
2018-07-12T17:06:24.706Z,16.90
2018-07-12T17:08:53.599Z,16.20
2018-07-12T17:11:22.523Z,16.80
2018-07-12T17:13:51.658Z,17.20
2018-07-12T17:16:20.566Z,17.20
2018-07-12T17:18:49.551Z,16.60
2018-07-12T17:21:18.431Z,16.90
2018-07-12T17:23:47.406Z,16.70
2018-07-12T17:26:16.225Z,17.00
2018-07-12T17:28:45.114Z,16.70
2018-07-12T17:31:14.019Z,18.00
2018-07-12T17:33:42.931Z,18.10
2018-07-12T17:36:11.800Z,19.10
2018-07-12T17:38:40.729Z,19.70
2018-07-12T17:41:09.650Z,19.40
2018-07-12T17:43:38.469Z,19.40
2018-07-12T17:46:07.369Z,20.00
2018-07-12T17:51:04.786Z,20.80
2018-07-12T17:53:33.674Z,21.60
2018-07-12T17:56:02.590Z,22.00
2018-07-12T17:58:31.446Z,23.20
2018-07-12T18:01:00.355Z,23.90
2018-07-12T18:03:29.263Z,24.00
2018-07-12T18:05:58.159Z,24.70
2018-07-12T18:08:27.062Z,25.20
2018-07-12T18:10:55.964Z,25.80
2018-07-12T18:13:24.901Z,26.60
2018-07-12T18:15:53.828Z,26.90
2018-07-12T18:18:22.719Z,27.40
2018-07-12T18:20:51.591Z,27.90
2018-07-12T18:23:20.477Z,28.70
2018-07-12T18:25:49.437Z,28.70
2018-07-12T18:28:18.352Z,29.20
2018-07-12T18:30:47.246Z,29.50
2018-07-12T18:33:16.147Z,29.80
2018-07-12T18:35:45.140Z,30.10
2018-07-12T18:38:14.034Z,30.00
2018-07-12T18:40:42.926Z,29.90
2018-07-12T18:43:11.799Z,30.10
2018-07-12T18:45:40.702Z,30.50
2018-07-12T18:48:09.568Z,31.20
2018-07-12T18:50:38.438Z,31.50
2018-07-12T18:53:07.326Z,31.80
2018-07-12T18:55:36.212Z,32.20
2018-07-12T18:58:05.105Z,32.50
2018-07-12T19:00:34.035Z,32.90
2018-07-12T19:03:02.928Z,33.00
2018-07-12T19:05:31.827Z,33.10
2018-07-12T19:08:00.732Z,34.10
2018-07-12T19:10:29.647Z,33.50
2018-07-12T19:12:58.539Z,33.50
2018-07-12T19:15:27.442Z,34.20
2018-07-12T19:17:56.307Z,34.10
2018-07-12T19:20:25.258Z,34.30
2018-07-12T19:22:54.163Z,34.70
2018-07-12T19:25:23.059Z,34.70
2018-07-12T19:27:51.950Z,35.00
2018-07-12T19:30:20.846Z,34.80
2018-07-12T19:32:49.762Z,35.60
2018-07-12T19:35:18.630Z,35.20
2018-07-12T19:40:16.134Z,35.00
2018-07-12T19:42:45.012Z,35.00
2018-07-12T19:45:13.928Z,35.10
2018-07-12T19:47:42.818Z,35.20
2018-07-12T19:50:11.803Z,35.20
2018-07-12T19:52:40.703Z,35.40
2018-07-12T19:55:09.654Z,35.70
2018-07-12T19:57:38.591Z,36.00
2018-07-12T20:00:07.466Z,36.60
2018-07-12T20:02:36.438Z,36.40
2018-07-12T20:05:05.371Z,36.00
2018-07-12T20:07:34.277Z,35.90
2018-07-12T20:10:03.198Z,36.10
2018-07-12T20:12:32.086Z,36.90
2018-07-12T20:15:01.006Z,36.40
2018-07-12T20:17:29.898Z,36.50
2018-07-12T20:19:58.798Z,37.00
2018-07-12T20:22:27.686Z,37.20
2018-07-12T20:24:56.698Z,37.50
2018-07-12T20:27:25.638Z,36.50
2018-07-12T20:29:54.847Z,37.20
2018-07-12T20:32:23.862Z,37.20
2018-07-12T20:34:52.811Z,37.20
2018-07-12T20:37:21.686Z,37.50
2018-07-12T20:39:50.688Z,37.40
2018-07-12T20:42:19.611Z,37.40
2018-07-12T20:44:48.538Z,37.70
2018-07-12T20:47:18.515Z,39.40
2018-07-12T20:49:47.426Z,39.20
2018-07-12T20:52:16.335Z,38.70
2018-07-12T20:54:45.295Z,39.10
2018-07-12T20:57:14.210Z,39.50
2018-07-12T20:59:43.103Z,40.20
2018-07-12T21:04:40.479Z,42.00
2018-07-12T21:07:09.493Z,42.30
2018-07-12T21:09:38.459Z,42.90
2018-07-12T21:12:07.356Z,43.30
2018-07-12T21:14:36.250Z,43.80
2018-07-12T21:17:05.186Z,44.10
2018-07-12T21:19:34.066Z,44.70
2018-07-12T21:22:02.970Z,45.00
2018-07-12T21:24:31.845Z,45.70
2018-07-12T21:29:29.270Z,46.20
2018-07-12T21:31:58.217Z,46.40
2018-07-12T21:34:27.221Z,47.20
2018-07-12T21:36:56.093Z,46.70
2018-07-12T21:39:25.140Z,47.20
2018-07-12T21:41:54.030Z,47.30
2018-07-12T21:44:23.032Z,47.80
2018-07-12T21:46:51.902Z,48.70
2018-07-12T21:49:20.774Z,48.60
2018-07-12T21:51:49.783Z,49.00
2018-07-12T21:54:18.808Z,49.40
2018-07-12T21:56:47.702Z,49.80
2018-07-12T21:59:16.565Z,50.10
2018-07-12T22:01:45.451Z,50.60
2018-07-12T22:04:14.343Z,50.60
2018-07-12T22:07:01.111Z,51.30
2018-07-12T22:09:29.994Z,51.40
2018-07-12T22:11:59.003Z,51.40
2018-07-12T22:14:27.778Z,51.60
2018-07-12T22:16:56.669Z,53.70
2018-07-12T22:19:25.525Z,53.50
2018-07-12T22:21:54.446Z,53.90
2018-07-12T22:24:23.399Z,53.60
2018-07-12T22:26:53.166Z,53.20
2018-07-12T22:29:22.078Z,52.60
2018-07-12T22:31:50.967Z,54.10
2018-07-12T22:34:19.838Z,53.80
2018-07-12T22:36:48.727Z,54.20
2018-07-12T22:39:17.715Z,54.10
2018-07-12T22:41:46.831Z,53.50
2018-07-12T22:44:15.655Z,54.10
2018-07-12T22:46:44.547Z,54.00
2018-07-12T22:49:13.465Z,53.90
2018-07-12T22:51:42.352Z,53.60
2018-07-12T22:56:39.690Z,53.90
2018-07-12T22:59:08.614Z,54.50
2018-07-12T23:01:37.511Z,54.10
2018-07-12T23:06:34.924Z,56.40
2018-07-12T23:09:04.959Z,56.00
2018-07-12T23:14:02.510Z,56.20
2018-07-12T23:16:31.415Z,56.30
2018-07-12T23:19:00.437Z,56.50
2018-07-12T23:21:29.350Z,56.70
2018-07-12T23:23:58.210Z,57.40
2018-07-12T23:26:27.090Z,57.90
2018-07-12T23:28:55.962Z,58.30
2018-07-12T23:31:24.850Z,58.40
2018-07-12T23:33:53.746Z,59.30
2018-07-12T23:36:22.635Z,59.20
2018-07-12T23:38:51.495Z,59.60
2018-07-12T23:41:20.374Z,59.90
2018-07-12T23:43:49.601Z,60.30
2018-07-12T23:46:18.481Z,61.30
2018-07-12T23:48:47.370Z,62.70
2018-07-12T23:51:16.254Z,61.90
2018-07-12T23:53:45.159Z,61.90
2018-07-12T23:56:14.054Z,61.80
2018-07-12T23:58:42.942Z,61.90
